Rock Point, Arizona
Current Conditions -  °F | °C
As of 12:53 PM on Monday 20 Oct 2014 (Local Time) from KRQE Reporting Station
Broken Clouds Broken Clouds  
Wind Chill: 61°   Ceiling: 9500
Heat Index: 61°   Visibility: 10mi
Dew Point: 40°   Wind: 6mph
Humidity: 46%   Direction: 190°S
Pressure: 30.23"   Gusts: NA
Location:  36.15°N, 109.55°W
Report Text: KRQE 201853Z AUTO 19005KT 10SM FEW038 SCT075 BKN095 16/04 A3023 RMK AO2 SLP164 T01610044 TSNO
Loading
Personal Weather Stations






























Interactive Weather Map
Tropical Storm Tracking
New forecast layout! Learn more

10-Day Weather Forecast

Advertisements
Track Severe Weather on mobile